createdAt,value
2018-11-22T00:00:55.167Z,1.20
2018-11-22T00:02:03.218Z,1.22
2018-11-22T00:03:11.328Z,1.20
2018-11-22T00:04:19.371Z,1.20
2018-11-22T00:05:27.407Z,1.20
2018-11-22T00:06:35.478Z,1.29
2018-11-22T00:07:43.540Z,1.37
2018-11-22T00:08:51.591Z,1.24
2018-11-22T00:09:59.649Z,1.29
2018-11-22T00:11:07.719Z,1.33
2018-11-22T00:12:15.750Z,1.16
2018-11-22T00:13:23.808Z,1.24
2018-11-22T00:14:31.863Z,1.30
2018-11-22T00:15:39.903Z,1.33
2018-11-22T00:16:47.982Z,1.29
2018-11-22T00:17:56.029Z,1.32
2018-11-22T00:19:04.103Z,1.23
2018-11-22T00:20:12.148Z,1.20
2018-11-22T00:21:20.242Z,1.30
2018-11-22T00:22:28.348Z,1.32
2018-11-22T00:23:36.339Z,1.23
2018-11-22T00:24:44.385Z,1.23
2018-11-22T00:25:52.439Z,1.22
2018-11-22T00:27:00.499Z,1.27
2018-11-22T00:28:08.568Z,1.20
2018-11-22T00:29:16.615Z,1.18
2018-11-22T00:30:24.666Z,1.20
2018-11-22T00:31:32.725Z,1.22
2018-11-22T00:32:40.807Z,1.22
2018-11-22T00:33:48.847Z,1.18
2018-11-22T00:34:56.889Z,1.18
2018-11-22T00:36:04.945Z,1.23
2018-11-22T00:37:13.037Z,1.24
2018-11-22T00:38:21.054Z,1.18
2018-11-22T00:39:29.137Z,1.24
2018-11-22T00:40:37.201Z,1.18
2018-11-22T00:41:45.238Z,1.24
2018-11-22T00:42:53.285Z,1.24
2018-11-22T00:44:01.353Z,1.22
2018-11-22T00:45:09.412Z,1.22
2018-11-22T00:46:17.484Z,1.27
2018-11-22T00:47:25.561Z,1.22
2018-11-22T00:48:33.593Z,1.32
2018-11-22T00:49:41.638Z,1.18
2018-11-22T00:50:49.706Z,1.32
2018-11-22T00:51:57.767Z,1.34
2018-11-22T00:53:05.841Z,1.27
2018-11-22T00:54:13.856Z,1.36
2018-11-22T00:55:21.946Z,1.40
2018-11-22T00:56:29.981Z,1.24
2018-11-22T00:57:38.055Z,1.41
2018-11-22T00:58:46.111Z,1.41
2018-11-22T00:59:54.206Z,1.40
2018-11-22T01:01:02.241Z,1.37
2018-11-22T01:02:10.289Z,1.34
2018-11-22T01:03:18.344Z,1.41
2018-11-22T01:04:26.397Z,1.24
2018-11-22T01:05:34.460Z,1.32
2018-11-22T01:06:42.512Z,1.24
2018-11-22T01:07:50.574Z,1.20
2018-11-22T01:08:58.631Z,1.14
2018-11-22T01:10:06.698Z,1.23
2018-11-22T01:11:14.747Z,1.15
2018-11-22T01:12:22.808Z,1.22
2018-11-22T01:13:30.866Z,1.20
2018-11-22T01:14:38.918Z,1.15
2018-11-22T01:15:46.993Z,1.27
2018-11-22T01:16:55.041Z,1.14
2018-11-22T01:18:03.093Z,1.14
2018-11-22T01:19:11.155Z,1.15
2018-11-22T01:20:19.205Z,1.14
2018-11-22T01:21:27.283Z,1.16
2018-11-22T01:22:35.329Z,1.11
2018-11-22T01:23:43.367Z,1.23
2018-11-22T01:24:51.438Z,1.11
2018-11-22T01:25:59.529Z,1.11
2018-11-22T01:27:07.530Z,1.20
2018-11-22T01:28:15.600Z,1.18
2018-11-22T01:29:23.676Z,1.24
2018-11-22T01:30:31.734Z,1.23
2018-11-22T01:31:39.782Z,1.24
2018-11-22T01:32:47.874Z,1.26
2018-11-22T01:33:55.913Z,1.26
2018-11-22T01:35:03.967Z,1.29
2018-11-22T01:36:12.023Z,1.14
2018-11-22T01:37:20.079Z,1.08
2018-11-22T01:38:28.124Z,1.14
2018-11-22T01:39:36.175Z,1.20
2018-11-22T01:40:44.242Z,1.14
2018-11-22T01:41:52.307Z,1.15
2018-11-22T01:43:00.374Z,1.18
2018-11-22T01:44:08.433Z,1.18
2018-11-22T01:45:16.485Z,1.20
2018-11-22T01:46:24.542Z,1.12
2018-11-22T01:47:32.597Z,1.11
2018-11-22T01:48:40.659Z,1.27
2018-11-22T01:49:48.709Z,1.22
2018-11-22T01:50:56.751Z,1.16
2018-11-22T01:52:04.817Z,1.23
2018-11-22T01:53:12.878Z,1.22
2018-11-22T01:54:20.944Z,1.30
2018-11-22T01:55:29.039Z,1.30
2018-11-22T01:56:37.066Z,1.29
2018-11-22T01:57:45.097Z,1.30
2018-11-22T01:58:53.164Z,1.36
2018-11-22T02:00:01.243Z,1.33
2018-11-22T02:01:09.282Z,1.40
2018-11-22T02:02:17.350Z,1.34
2018-11-22T02:03:25.392Z,1.37
2018-11-22T02:04:33.465Z,1.44
2018-11-22T02:05:41.543Z,1.50
2018-11-22T02:06:49.576Z,1.44
2018-11-22T02:07:57.641Z,1.47
2018-11-22T02:09:05.681Z,1.47
2018-11-22T02:10:13.746Z,1.41
2018-11-22T02:11:21.809Z,1.42
2018-11-22T02:12:29.863Z,1.37
2018-11-22T02:13:37.926Z,1.36
2018-11-22T02:14:45.994Z,1.36
2018-11-22T02:15:54.011Z,1.40
2018-11-22T02:17:02.099Z,1.26
2018-11-22T02:18:10.172Z,1.27
2018-11-22T02:19:18.210Z,1.33
2018-11-22T02:20:26.275Z,1.40
2018-11-22T02:21:34.318Z,1.41
2018-11-22T02:22:42.375Z,1.32
2018-11-22T02:23:50.418Z,1.42
2018-11-22T02:24:58.487Z,1.36
2018-11-22T02:26:06.545Z,1.34
2018-11-22T02:27:14.615Z,1.34
2018-11-22T02:28:22.684Z,1.37
2018-11-22T02:29:30.709Z,1.36
2018-11-22T02:30:38.800Z,1.42
2018-11-22T02:31:46.859Z,1.45
2018-11-22T02:32:54.888Z,1.50
2018-11-22T02:34:02.959Z,1.52
2018-11-22T02:35:10.986Z,1.47
2018-11-22T02:36:19.078Z,1.51
2018-11-22T02:37:27.113Z,1.52
2018-11-22T02:38:35.207Z,1.54
2018-11-22T02:39:43.232Z,1.58
2018-11-22T02:40:51.313Z,1.48
2018-11-22T02:41:59.348Z,1.45
2018-11-22T02:43:07.420Z,1.59
2018-11-22T02:44:15.476Z,1.47
2018-11-22T02:45:23.525Z,1.45
2018-11-22T02:46:31.610Z,1.40
2018-11-22T02:47:39.649Z,1.51
2018-11-22T02:48:47.716Z,1.41
2018-11-22T02:49:55.765Z,1.41
2018-11-22T02:51:03.816Z,1.45
2018-11-22T02:52:11.892Z,1.45
2018-11-22T02:53:19.939Z,1.45
2018-11-22T02:54:27.988Z,1.45
2018-11-22T02:55:36.047Z,1.50
2018-11-22T02:56:44.101Z,1.45
2018-11-22T02:57:52.166Z,1.47
2018-11-22T02:59:00.238Z,1.45
2018-11-22T03:00:08.297Z,1.48
2018-11-22T03:01:16.337Z,1.52
2018-11-22T03:02:24.376Z,1.47
2018-11-22T03:03:32.461Z,1.50
2018-11-22T03:04:40.527Z,1.54
2018-11-22T03:05:48.579Z,1.55
2018-11-22T03:06:56.641Z,1.52
2018-11-22T03:08:04.692Z,1.50
2018-11-22T03:09:12.757Z,1.52
2018-11-22T03:10:20.839Z,1.41
2018-11-22T03:11:28.881Z,1.47
2018-11-22T03:12:36.935Z,1.42
2018-11-22T03:13:45.000Z,1.45
2018-11-22T03:14:53.046Z,1.52
2018-11-22T03:16:01.105Z,1.42
2018-11-22T03:17:09.142Z,1.48
2018-11-22T03:18:17.225Z,1.50
2018-11-22T03:19:25.285Z,1.48
2018-11-22T03:20:33.305Z,1.48
2018-11-22T03:21:41.383Z,1.48
2018-11-22T03:22:49.446Z,1.47
2018-11-22T03:23:57.502Z,1.48
2018-11-22T03:25:05.575Z,1.52
2018-11-22T03:26:13.605Z,1.44
2018-11-22T03:27:21.671Z,1.52
2018-11-22T03:28:29.742Z,1.55
2018-11-22T03:29:37.797Z,1.58
2018-11-22T03:30:45.862Z,1.55
2018-11-22T03:31:53.907Z,1.55
2018-11-22T03:33:01.955Z,1.51
2018-11-22T03:34:10.015Z,1.42
2018-11-22T03:35:18.054Z,1.45
2018-11-22T03:36:26.136Z,1.51
2018-11-22T03:37:34.191Z,1.58
2018-11-22T03:38:42.243Z,1.63
2018-11-22T03:39:50.337Z,1.52
2018-11-22T03:40:58.382Z,1.54
2018-11-22T03:42:06.436Z,1.62
2018-11-22T03:43:14.505Z,1.51
2018-11-22T03:44:22.542Z,1.52
2018-11-22T03:45:30.620Z,1.55
2018-11-22T03:46:38.661Z,1.50
2018-11-22T03:47:46.733Z,1.58
2018-11-22T03:48:54.775Z,1.59
2018-11-22T03:50:02.824Z,1.52
2018-11-22T03:51:10.882Z,1.48
2018-11-22T03:52:18.953Z,1.47
2018-11-22T03:53:27.027Z,1.50
2018-11-22T03:54:35.053Z,1.45
2018-11-22T03:55:43.124Z,1.47
2018-11-22T03:56:51.191Z,1.36
2018-11-22T03:57:59.235Z,1.40
2018-11-22T03:59:07.332Z,1.51
2018-11-22T04:00:15.373Z,1.44
2018-11-22T04:01:23.403Z,1.54
2018-11-22T04:02:31.473Z,1.40
2018-11-22T04:03:39.525Z,1.42
2018-11-22T04:04:47.578Z,1.42
2018-11-22T04:05:55.647Z,1.42
2018-11-22T04:07:03.693Z,1.44
2018-11-22T04:08:11.754Z,1.41
2018-11-22T04:09:19.817Z,1.44
2018-11-22T04:10:27.881Z,1.47
2018-11-22T04:11:35.939Z,1.50
2018-11-22T04:12:43.978Z,1.52
2018-11-22T04:13:52.051Z,1.54
2018-11-22T04:15:00.106Z,1.45
2018-11-22T04:16:08.173Z,1.52
2018-11-22T04:17:16.278Z,1.48
2018-11-22T04:18:24.257Z,1.48
2018-11-22T04:19:32.318Z,1.45
2018-11-22T04:20:40.392Z,1.51
2018-11-22T04:21:48.453Z,1.42
2018-11-22T04:22:56.522Z,1.45
2018-11-22T04:24:04.566Z,1.44
2018-11-22T04:25:12.629Z,1.45
2018-11-22T04:26:24.073Z,1.41
2018-11-22T04:27:28.748Z,1.41
2018-11-22T04:28:36.795Z,1.44
2018-11-22T04:29:44.877Z,1.51
2018-11-22T04:30:52.922Z,1.45
2018-11-22T04:32:00.979Z,1.45
2018-11-22T04:33:09.026Z,1.54
2018-11-22T04:34:17.114Z,1.45
2018-11-22T04:35:25.162Z,1.36
2018-11-22T04:36:33.220Z,1.41
2018-11-22T04:37:41.278Z,1.34
2018-11-22T04:38:49.332Z,1.42
2018-11-22T04:39:57.376Z,1.37
2018-11-22T04:41:05.446Z,1.40
2018-11-22T04:42:13.475Z,1.29
2018-11-22T04:43:21.545Z,1.23
2018-11-22T04:44:29.644Z,1.27
2018-11-22T04:45:37.643Z,1.22
2018-11-22T04:46:45.732Z,1.29
2018-11-22T04:47:53.767Z,1.33
2018-11-22T04:49:01.849Z,1.30
2018-11-22T04:50:09.911Z,1.18
2018-11-22T04:51:17.978Z,1.22
2018-11-22T04:52:26.000Z,1.15
2018-11-22T04:53:34.050Z,1.11
2018-11-22T04:54:42.141Z,1.11
2018-11-22T04:55:50.192Z,1.14
2018-11-22T04:56:58.252Z,1.23
2018-11-22T04:58:06.314Z,1.18
2018-11-22T04:59:14.373Z,1.14
2018-11-22T05:00:22.417Z,1.20
2018-11-22T05:01:30.491Z,1.18
2018-11-22T05:02:38.538Z,1.12
2018-11-22T05:03:46.591Z,1.11
2018-11-22T05:04:54.663Z,1.08
2018-11-22T05:06:02.707Z,1.11
2018-11-22T05:07:10.756Z,1.14
2018-11-22T05:08:18.818Z,1.14
2018-11-22T05:09:26.895Z,1.06
2018-11-22T05:10:34.935Z,1.06
2018-11-22T05:11:43.028Z,1.05
2018-11-22T05:12:51.056Z,1.06
2018-11-22T05:13:59.140Z,1.09
2018-11-22T05:15:07.177Z,1.05
2018-11-22T05:16:15.231Z,0.98
2018-11-22T05:17:23.288Z,1.08
2018-11-22T05:18:31.335Z,1.12
2018-11-22T05:19:39.411Z,0.94
2018-11-22T05:20:47.462Z,1.02
2018-11-22T05:21:55.507Z,1.06
2018-11-22T05:23:03.583Z,1.05
2018-11-22T05:24:11.635Z,1.00
2018-11-22T05:25:19.704Z,1.04
2018-11-22T05:26:27.753Z,1.04
2018-11-22T05:27:35.814Z,0.98
2018-11-22T05:28:43.838Z,0.94
2018-11-22T05:29:51.931Z,0.88
2018-11-22T05:30:59.981Z,1.04
2018-11-22T05:32:08.067Z,0.91
2018-11-22T05:33:16.122Z,0.93
2018-11-22T05:34:24.209Z,0.91
2018-11-22T05:35:32.210Z,0.91
2018-11-22T05:36:40.240Z,0.93
2018-11-22T05:37:48.296Z,0.93
2018-11-22T05:38:57.080Z,0.87
2018-11-22T05:40:04.426Z,0.84
2018-11-22T05:41:12.489Z,0.91
2018-11-22T05:42:20.632Z,0.84
2018-11-22T05:43:28.804Z,0.80
2018-11-22T05:44:36.663Z,0.84
2018-11-22T05:45:44.711Z,0.80
2018-11-22T05:46:52.771Z,0.76
2018-11-22T05:48:00.830Z,0.86
2018-11-22T05:49:08.896Z,0.86
2018-11-22T05:50:16.935Z,0.86
2018-11-22T05:51:24.992Z,0.78
2018-11-22T05:52:33.089Z,0.88
2018-11-22T05:53:41.108Z,0.88
2018-11-22T05:54:50.507Z,0.88
2018-11-22T05:55:57.214Z,0.84
2018-11-22T05:57:05.269Z,0.94
2018-11-22T05:58:13.334Z,0.91
2018-11-22T05:59:21.426Z,0.88
2018-11-22T06:00:29.448Z,0.90
2018-11-22T06:01:37.499Z,0.88
2018-11-22T06:02:46.972Z,0.90
2018-11-22T06:03:53.719Z,0.96
2018-11-22T06:05:01.761Z,0.97
2018-11-22T06:06:10.043Z,0.93
2018-11-22T06:07:17.806Z,0.88
2018-11-22T06:08:25.856Z,0.96
2018-11-22T06:09:33.887Z,1.04
2018-11-22T06:10:41.962Z,1.00
2018-11-22T06:11:50.020Z,1.04
2018-11-22T06:12:58.072Z,1.00
2018-11-22T06:14:06.155Z,1.06
2018-11-22T06:15:14.187Z,1.04
2018-11-22T06:16:22.253Z,1.05
2018-11-22T06:17:30.298Z,1.04
2018-11-22T06:18:38.360Z,1.05
2018-11-22T06:19:46.415Z,1.04
2018-11-22T06:20:54.464Z,1.09
2018-11-22T06:22:02.539Z,1.06
2018-11-22T06:23:10.586Z,1.09
2018-11-22T06:24:18.640Z,0.97
2018-11-22T06:25:26.716Z,1.09
2018-11-22T06:26:34.764Z,1.06
2018-11-22T06:27:42.836Z,1.12
2018-11-22T06:28:50.890Z,1.02
2018-11-22T06:29:58.964Z,1.06
2018-11-22T06:31:07.004Z,1.00
2018-11-22T06:32:15.060Z,0.93
2018-11-22T06:33:23.108Z,0.97
2018-11-22T06:34:31.153Z,0.93
2018-11-22T06:35:39.219Z,0.90
2018-11-22T06:36:47.283Z,1.08
2018-11-22T06:37:55.353Z,1.02
2018-11-22T06:39:03.370Z,1.00
2018-11-22T06:40:11.435Z,1.00
2018-11-22T06:41:19.504Z,1.00
2018-11-22T06:42:27.642Z,1.06
2018-11-22T06:43:35.626Z,1.09
2018-11-22T06:44:43.661Z,1.09
2018-11-22T06:45:51.716Z,1.15
2018-11-22T06:46:59.797Z,1.00
2018-11-22T06:48:07.872Z,1.14
2018-11-22T06:49:15.957Z,1.11
2018-11-22T06:50:23.958Z,1.02
2018-11-22T06:51:32.014Z,1.05
2018-11-22T06:52:40.087Z,1.09
2018-11-22T06:53:48.137Z,0.97
2018-11-22T06:54:56.195Z,1.14
2018-11-22T06:56:04.232Z,1.12
2018-11-22T06:57:12.308Z,0.98
2018-11-22T06:58:20.365Z,1.04
2018-11-22T06:59:28.424Z,1.04
2018-11-22T07:00:36.497Z,1.05
2018-11-22T07:01:44.559Z,1.00
2018-11-22T07:02:52.599Z,0.87
2018-11-22T07:04:00.670Z,0.91
2018-11-22T07:05:08.727Z,0.88
2018-11-22T07:06:16.779Z,0.88
2018-11-22T07:07:24.845Z,0.93
2018-11-22T07:08:32.892Z,0.88
2018-11-22T07:09:40.956Z,0.90
2018-11-22T07:10:48.998Z,0.86
2018-11-22T07:11:57.070Z,0.96
2018-11-22T07:13:05.128Z,0.94
2018-11-22T07:14:13.189Z,0.87
2018-11-22T07:15:21.243Z,0.91
2018-11-22T07:16:29.303Z,0.91
2018-11-22T07:17:37.353Z,0.90
2018-11-22T07:18:45.411Z,0.88
2018-11-22T07:19:53.492Z,0.84
2018-11-22T07:21:01.522Z,0.87
2018-11-22T07:22:09.636Z,0.87
2018-11-22T07:23:17.644Z,0.87
2018-11-22T07:24:25.708Z,0.86
2018-11-22T07:25:33.755Z,0.88
2018-11-22T07:26:41.822Z,0.91
2018-11-22T07:27:49.855Z,0.88
2018-11-22T07:28:57.931Z,0.88
2018-11-22T07:30:06.031Z,0.88
2018-11-22T07:31:14.054Z,0.88
2018-11-22T07:32:22.099Z,0.90
2018-11-22T07:33:30.144Z,0.93
2018-11-22T07:34:38.209Z,0.76
2018-11-22T07:35:46.288Z,0.84
2018-11-22T07:36:54.365Z,0.83
2018-11-22T07:38:02.373Z,0.91
2018-11-22T07:39:10.455Z,0.84
2018-11-22T07:40:18.497Z,0.90
2018-11-22T07:41:26.571Z,0.80
2018-11-22T07:42:34.627Z,0.80
2018-11-22T07:43:42.677Z,0.73
2018-11-22T07:44:50.706Z,0.78
2018-11-22T07:45:58.792Z,0.75
2018-11-22T07:47:06.893Z,0.73
2018-11-22T07:48:14.930Z,0.79
2018-11-22T07:49:22.992Z,0.73
2018-11-22T07:50:31.033Z,0.69
2018-11-22T07:51:39.108Z,0.73
2018-11-22T07:52:47.135Z,0.68
2018-11-22T07:53:55.210Z,0.66
2018-11-22T07:55:03.251Z,0.66
2018-11-22T07:56:11.318Z,0.68
2018-11-22T07:57:19.386Z,0.65
2018-11-22T07:58:27.434Z,0.69
2018-11-22T07:59:35.502Z,0.68
2018-11-22T08:00:43.560Z,0.61
2018-11-22T08:01:51.607Z,0.65
2018-11-22T08:02:59.670Z,0.60
2018-11-22T08:04:07.723Z,0.69
2018-11-22T08:05:15.791Z,0.68
2018-11-22T08:06:23.826Z,0.65
2018-11-22T08:07:31.894Z,0.60
2018-11-22T08:08:39.955Z,0.61
2018-11-22T08:09:48.014Z,0.61
2018-11-22T08:10:56.065Z,0.55
2018-11-22T08:12:04.126Z,0.58
2018-11-22T08:13:12.190Z,0.57
2018-11-22T08:14:20.245Z,0.57
2018-11-22T08:15:28.331Z,0.55
2018-11-22T08:16:36.348Z,0.50
2018-11-22T08:17:44.419Z,0.47
2018-11-22T08:18:52.465Z,0.50
2018-11-22T08:20:00.527Z,0.38
2018-11-22T08:21:08.575Z,0.38
2018-11-22T08:22:16.630Z,0.38
2018-11-22T08:23:24.716Z,0.39
2018-11-22T08:24:32.799Z,0.41
2018-11-22T08:25:40.857Z,0.46
2018-11-22T08:26:48.878Z,0.49
2018-11-22T08:27:56.958Z,0.57
2018-11-22T08:29:04.992Z,0.58
2018-11-22T08:30:13.043Z,0.69
2018-11-22T08:31:21.103Z,0.58
2018-11-22T08:32:29.158Z,0.66
2018-11-22T08:33:37.243Z,0.80
2018-11-22T08:34:45.300Z,0.96
2018-11-22T08:35:53.318Z,0.97
2018-11-22T08:37:01.409Z,1.08
2018-11-22T08:38:09.489Z,1.12
2018-11-22T08:39:17.511Z,1.15
2018-11-22T08:40:25.589Z,1.26
2018-11-22T08:41:33.614Z,1.32
2018-11-22T08:42:41.687Z,1.26
2018-11-22T08:43:49.733Z,1.42
2018-11-22T08:44:57.795Z,1.44
2018-11-22T08:46:05.834Z,1.54
2018-11-22T08:47:13.919Z,1.48
2018-11-22T08:48:21.959Z,1.63
2018-11-22T08:49:30.043Z,1.65
2018-11-22T08:50:38.079Z,1.65
2018-11-22T08:51:46.153Z,1.77
2018-11-22T08:52:54.205Z,1.70
2018-11-22T08:54:02.240Z,1.90
2018-11-22T08:55:10.317Z,1.91
2018-11-22T08:56:18.386Z,2.03
2018-11-22T08:57:26.459Z,2.05
2018-11-22T08:58:34.509Z,2.05
2018-11-22T08:59:42.544Z,2.02
2018-11-22T09:00:50.623Z,2.16
2018-11-22T09:01:58.669Z,2.24
2018-11-22T09:03:06.708Z,2.21
2018-11-22T09:04:14.797Z,2.27
2018-11-22T09:05:22.849Z,2.23
2018-11-22T09:06:30.927Z,2.34
2018-11-22T09:07:38.976Z,2.30
2018-11-22T09:08:47.067Z,2.45
2018-11-22T09:09:55.085Z,2.48
2018-11-22T09:11:03.142Z,2.53
2018-11-22T09:12:11.200Z,2.61
2018-11-22T09:13:19.255Z,2.60
2018-11-22T09:14:27.332Z,2.60
2018-11-22T09:15:35.444Z,2.69
2018-11-22T09:16:43.447Z,2.72
2018-11-22T09:17:51.496Z,2.75
2018-11-22T09:18:59.587Z,2.79
2018-11-22T09:20:07.596Z,2.78
2018-11-22T09:21:15.687Z,2.74
2018-11-22T09:22:23.755Z,2.81
2018-11-22T09:23:31.798Z,2.78
2018-11-22T09:24:39.861Z,2.79
2018-11-22T09:25:47.929Z,2.93
2018-11-22T09:26:55.982Z,2.81
2018-11-22T09:28:04.030Z,2.93
2018-11-22T09:29:12.105Z,2.93
2018-11-22T09:30:20.172Z,2.84
2018-11-22T09:31:28.230Z,2.87
2018-11-22T09:32:36.297Z,3.03
2018-11-22T09:34:52.404Z,2.97
2018-11-22T09:36:00.462Z,3.05
2018-11-22T09:37:08.528Z,3.06
2018-11-22T09:38:16.581Z,3.08
2018-11-22T09:39:24.626Z,3.18
2018-11-22T09:40:32.693Z,3.11
2018-11-22T09:41:40.770Z,3.13
2018-11-22T09:42:48.815Z,3.11
2018-11-22T09:43:56.903Z,3.21
2018-11-22T09:45:04.936Z,3.28
2018-11-22T09:46:13.005Z,3.23
2018-11-22T09:47:21.050Z,3.20
2018-11-22T09:48:29.109Z,3.32
2018-11-22T09:49:37.186Z,3.33
2018-11-22T09:50:45.206Z,3.39
2018-11-22T09:51:53.285Z,3.26
2018-11-22T09:53:01.320Z,3.28
2018-11-22T09:54:09.416Z,3.13
2018-11-22T09:55:17.465Z,3.26
2018-11-22T09:56:25.525Z,3.23
2018-11-22T09:57:33.571Z,3.26
2018-11-22T09:58:41.675Z,3.33
2018-11-22T09:59:49.713Z,3.32
2018-11-22T10:00:57.790Z,3.35
2018-11-22T10:02:05.824Z,3.33
2018-11-22T10:03:13.942Z,3.36
2018-11-22T10:04:21.941Z,3.39
2018-11-22T10:05:30.076Z,3.57
2018-11-22T10:06:38.090Z,3.47
2018-11-22T10:07:46.125Z,3.54
2018-11-22T10:08:54.221Z,3.65
2018-11-22T10:10:02.232Z,3.66
2018-11-22T10:11:10.306Z,3.65
2018-11-22T10:12:18.397Z,3.73
2018-11-22T10:13:26.439Z,3.75
2018-11-22T10:14:34.505Z,3.84
2018-11-22T10:15:42.545Z,3.88
2018-11-22T10:16:50.597Z,3.93
2018-11-22T10:17:58.686Z,4.05
2018-11-22T10:19:06.723Z,4.15
2018-11-22T10:20:14.792Z,4.08
2018-11-22T10:21:22.856Z,4.23
2018-11-22T10:22:30.963Z,4.20
2018-11-22T10:23:38.998Z,4.32
2018-11-22T10:24:47.034Z,4.20
2018-11-22T10:25:55.095Z,4.33
2018-11-22T10:27:03.157Z,4.34
2018-11-22T10:28:11.215Z,4.37
2018-11-22T10:29:19.330Z,4.45
2018-11-22T10:30:27.449Z,4.55
2018-11-22T10:31:35.419Z,4.51
2018-11-22T10:32:43.457Z,4.63
2018-11-22T10:33:51.521Z,4.63
2018-11-22T10:34:59.604Z,4.75
2018-11-22T10:36:07.633Z,4.70
2018-11-22T10:37:15.684Z,4.59
2018-11-22T10:38:23.853Z,4.54
2018-11-22T10:39:31.806Z,4.47
2018-11-22T10:40:39.888Z,4.44
2018-11-22T10:41:47.960Z,4.34
2018-11-22T10:42:55.996Z,4.26
2018-11-22T10:44:04.061Z,4.27
2018-11-22T10:45:12.138Z,4.16
2018-11-22T10:46:20.211Z,4.16
2018-11-22T10:47:28.241Z,4.16
2018-11-22T10:48:36.327Z,4.08
2018-11-22T10:49:45.087Z,4.12
2018-11-22T10:50:52.428Z,4.16
2018-11-22T10:52:00.534Z,4.30
2018-11-22T10:53:08.563Z,4.27
2018-11-22T10:54:16.607Z,4.32
2018-11-22T10:55:24.657Z,4.37
2018-11-22T10:56:32.733Z,4.50
2018-11-22T10:57:40.796Z,4.50
2018-11-22T10:58:48.860Z,4.54
2018-11-22T10:59:56.932Z,4.55
2018-11-22T11:01:05.004Z,4.62
2018-11-22T11:02:13.072Z,4.75
2018-11-22T11:03:21.138Z,4.70
2018-11-22T11:04:29.158Z,4.73
2018-11-22T11:05:37.212Z,4.62
2018-11-22T11:06:45.282Z,4.62
2018-11-22T11:07:53.331Z,4.59
2018-11-22T11:09:01.395Z,4.58
2018-11-22T11:10:09.440Z,4.50
2018-11-22T11:11:17.557Z,4.45
2018-11-22T11:12:25.648Z,4.50
2018-11-22T11:13:33.642Z,4.45
2018-11-22T11:14:41.730Z,4.42
2018-11-22T11:15:49.756Z,4.42
2018-11-22T11:16:57.814Z,4.36
2018-11-22T11:18:05.884Z,4.40
2018-11-22T11:19:13.957Z,4.50
2018-11-22T11:20:22.008Z,4.59
2018-11-22T11:21:30.075Z,4.65
2018-11-22T11:22:38.114Z,4.62
2018-11-22T11:23:46.241Z,4.67
2018-11-22T11:24:54.256Z,4.80
2018-11-22T11:26:02.317Z,4.78
2018-11-22T11:27:10.356Z,4.86
2018-11-22T11:28:18.427Z,4.92
2018-11-22T11:29:26.479Z,4.80
2018-11-22T11:30:34.550Z,4.85
2018-11-22T11:31:42.609Z,4.88
2018-11-22T11:32:50.664Z,4.97
2018-11-22T11:33:59.171Z,4.91
2018-11-22T11:35:06.805Z,5.02
2018-11-22T11:36:17.790Z,5.06
2018-11-22T11:37:22.920Z,5.13
2018-11-22T11:38:30.968Z,5.20
2018-11-22T11:39:39.033Z,5.06
2018-11-22T11:40:47.090Z,4.84
2018-11-22T11:41:55.142Z,4.67
2018-11-22T11:43:03.204Z,4.75
2018-11-22T11:44:11.299Z,4.73
2018-11-22T11:45:19.332Z,4.72
2018-11-22T11:46:27.403Z,4.72
2018-11-22T11:47:35.448Z,4.70
2018-11-22T11:48:43.513Z,4.75
2018-11-22T11:49:51.567Z,4.82
2018-11-22T11:50:59.685Z,4.88
2018-11-22T11:52:07.703Z,4.82
2018-11-22T11:53:15.764Z,4.88
2018-11-22T11:54:23.819Z,4.89
2018-11-22T11:55:31.892Z,4.96
2018-11-22T11:56:39.940Z,5.06
2018-11-22T11:57:48.017Z,5.09
2018-11-22T11:58:56.070Z,5.13
2018-11-22T12:00:04.130Z,5.20
2018-11-22T12:01:12.192Z,5.17
2018-11-22T12:02:20.285Z,5.36
2018-11-22T12:03:28.285Z,5.30
2018-11-22T12:04:36.349Z,5.35
2018-11-22T12:05:44.406Z,5.38
2018-11-22T12:06:52.515Z,5.39
2018-11-22T12:08:00.557Z,5.40
2018-11-22T12:09:08.601Z,5.53
2018-11-22T12:10:16.654Z,5.54
2018-11-22T12:11:24.726Z,5.45
2018-11-22T12:12:32.779Z,5.54
2018-11-22T12:13:40.837Z,5.54
2018-11-22T12:14:48.918Z,5.53
2018-11-22T12:15:56.968Z,5.64
2018-11-22T12:17:05.058Z,5.61
2018-11-22T12:18:13.087Z,5.65
2018-11-22T12:19:21.141Z,5.78
2018-11-22T12:20:29.185Z,5.85
2018-11-22T12:21:37.282Z,5.83
2018-11-22T12:22:45.338Z,5.89
2018-11-22T12:23:53.400Z,5.93
2018-11-22T12:25:01.458Z,5.96
2018-11-22T12:26:09.528Z,5.86
2018-11-22T12:27:17.557Z,5.89
2018-11-22T12:28:25.608Z,5.96
2018-11-22T12:29:33.671Z,5.96
2018-11-22T12:30:41.757Z,6.08
2018-11-22T12:31:49.830Z,6.12
2018-11-22T12:32:57.871Z,6.12
2018-11-22T12:34:05.919Z,6.12
2018-11-22T12:35:14.023Z,6.22
2018-11-22T12:36:22.037Z,6.27
2018-11-22T12:37:30.113Z,6.33
2018-11-22T12:38:38.160Z,6.34
2018-11-22T12:39:46.230Z,6.46
2018-11-22T12:40:54.306Z,6.56
2018-11-22T12:42:02.392Z,6.59
2018-11-22T12:43:10.404Z,6.69
2018-11-22T12:44:18.486Z,6.62
2018-11-22T12:45:26.561Z,6.66
2018-11-22T12:46:34.617Z,6.66
2018-11-22T12:47:42.664Z,6.76
2018-11-22T12:48:50.761Z,6.71
2018-11-22T12:49:58.793Z,6.80
2018-11-22T12:51:06.841Z,6.77
2018-11-22T12:52:14.915Z,6.87
2018-11-22T12:53:23.004Z,6.85
2018-11-22T12:54:31.032Z,6.92
2018-11-22T12:55:39.136Z,7.02
2018-11-22T12:56:47.156Z,6.98
2018-11-22T12:57:55.228Z,6.92
2018-11-22T12:59:03.266Z,7.12
2018-11-22T13:00:11.340Z,7.06
2018-11-22T13:02:27.448Z,6.99
2018-11-22T13:03:36.076Z,7.09
2018-11-22T13:04:43.693Z,7.13
2018-11-22T13:05:51.628Z,7.13
2018-11-22T13:06:59.754Z,7.16
2018-11-22T13:08:07.760Z,7.16
2018-11-22T13:09:15.926Z,7.15
2018-11-22T13:10:23.971Z,7.13
2018-11-22T13:11:31.996Z,7.16
2018-11-22T13:12:40.129Z,7.13
2018-11-22T13:13:48.139Z,7.10
2018-11-22T13:14:56.119Z,7.23
2018-11-22T13:16:04.256Z,7.24
2018-11-22T13:17:12.279Z,7.27
2018-11-22T13:18:20.380Z,7.30
2018-11-22T13:19:28.507Z,7.25
2018-11-22T13:20:36.421Z,7.27
2018-11-22T13:21:44.599Z,7.28
2018-11-22T13:22:52.553Z,7.21
2018-11-22T13:24:00.719Z,7.25
2018-11-22T13:25:08.773Z,7.28
2018-11-22T13:26:16.815Z,7.25
2018-11-22T13:27:24.776Z,7.17
2018-11-22T13:28:32.897Z,7.24
2018-11-22T13:29:40.911Z,7.27
2018-11-22T13:30:49.031Z,7.27
2018-11-22T13:31:57.031Z,7.27
2018-11-22T13:33:05.088Z,7.25
2018-11-22T13:34:13.236Z,7.21
2018-11-22T13:35:21.278Z,7.20
2018-11-22T13:36:29.433Z,7.10
2018-11-22T13:37:37.344Z,7.09
2018-11-22T13:38:45.491Z,7.12
2018-11-22T13:39:53.524Z,7.15
2018-11-22T13:41:02.176Z,7.13
2018-11-22T13:42:09.587Z,7.13
2018-11-22T13:43:17.761Z,7.17
2018-11-22T13:44:25.779Z,7.15
2018-11-22T13:45:33.856Z,7.17
2018-11-22T13:46:41.912Z,7.13
2018-11-22T13:47:49.911Z,7.13
2018-11-22T13:48:58.069Z,7.16
2018-11-22T13:50:06.032Z,7.16
2018-11-22T13:51:14.162Z,7.02
2018-11-22T13:52:22.220Z,7.03
2018-11-22T13:53:30.306Z,6.97
2018-11-22T13:54:38.270Z,6.89
2018-11-22T13:55:46.402Z,6.99
2018-11-22T13:56:54.510Z,7.07
2018-11-22T13:58:02.557Z,6.87
2018-11-22T13:59:10.581Z,6.98
2018-11-22T14:00:18.559Z,6.98
2018-11-22T14:01:26.738Z,7.02
2018-11-22T14:02:34.817Z,6.94
2018-11-22T14:03:42.866Z,6.95
2018-11-22T14:04:50.929Z,6.98
2018-11-22T14:05:58.875Z,6.98
2018-11-22T14:07:06.943Z,6.98
2018-11-22T14:08:15.063Z,6.91
2018-11-22T14:09:23.170Z,6.88
2018-11-22T14:10:31.109Z,6.80
2018-11-22T14:11:39.183Z,6.81
2018-11-22T14:12:47.324Z,6.84
2018-11-22T14:13:55.419Z,6.77
2018-11-22T14:15:03.442Z,6.71
2018-11-22T14:16:11.423Z,6.71
2018-11-22T14:17:19.569Z,6.80
2018-11-22T14:18:27.654Z,6.59
2018-11-22T14:19:35.707Z,6.48
2018-11-22T14:20:43.745Z,6.52
2018-11-22T14:21:51.814Z,6.37
2018-11-22T14:22:59.909Z,6.36
2018-11-22T14:24:08.076Z,6.28
2018-11-22T14:25:16.032Z,6.12
2018-11-22T14:26:23.990Z,6.06
2018-11-22T14:27:32.065Z,5.99
2018-11-22T14:28:40.247Z,5.93
2018-11-22T14:29:48.139Z,5.93
2018-11-22T14:30:56.347Z,5.82
2018-11-22T14:32:04.373Z,5.64
2018-11-22T14:33:12.391Z,5.60
2018-11-22T14:34:20.410Z,5.57
2018-11-22T14:35:28.577Z,5.61
2018-11-22T14:36:36.620Z,5.49
2018-11-22T14:37:44.596Z,5.49
2018-11-22T14:38:52.745Z,5.36
2018-11-22T14:40:00.709Z,5.33
2018-11-22T14:41:08.765Z,5.20
2018-11-22T14:42:16.925Z,5.12
2018-11-22T14:43:24.932Z,4.99
2018-11-22T14:44:33.025Z,4.80
2018-11-22T14:45:41.110Z,4.78
2018-11-22T14:46:49.252Z,4.77
2018-11-22T14:47:57.115Z,4.59
2018-11-22T14:49:05.238Z,4.55
2018-11-22T14:50:13.291Z,4.54
2018-11-22T14:51:21.331Z,4.42
2018-11-22T14:52:29.499Z,4.40
2018-11-22T14:53:37.585Z,4.34
2018-11-22T14:54:45.616Z,4.22
2018-11-22T14:55:53.533Z,4.16
2018-11-22T14:57:01.672Z,4.14
2018-11-22T14:58:09.755Z,3.97
2018-11-22T14:59:17.859Z,3.98
2018-11-22T15:00:25.932Z,3.91
2018-11-22T15:01:33.831Z,3.91
2018-11-22T15:02:42.017Z,3.88
2018-11-22T15:03:49.963Z,3.88
2018-11-22T15:04:58.104Z,3.79
2018-11-22T15:06:06.179Z,3.76
2018-11-22T15:07:14.286Z,3.75
2018-11-22T15:08:22.218Z,3.75